CYDQ

Dawson Creek Airport

Dawson Creek, British Columbia, Canada
METAR CYDQ 201228Z AUTO 24019G25KT 9SM CLR 10/01 A2994 RMK SLP155
Observed Flight Rules
Oct-20 @ 12:28 UTC (40 minutes ago) Visual Flight Rules
Wind Visibility Clouds
240° at 19 knots
 Gusting to 25 knots
9 miles
  • Clear skies
Temperatures Readings
Current 10°C / 50°F
Dewpoint 1°C / 34°F
Humidity 54%
Altimeter 29.94" Hg
Pressure 1015.5 hPa
Elevation 655
METAR CYDQ 201228Z AUTO 24019G25KT 9SM CLR 10/01 A2994 RMK SLP155
Observed Flight Rules
Oct-20 @ 12:28 UTC
(40 minutes ago)
VFR
Wind Visibility
240° at 19 knots
 Gusting to 25 knots
9 miles
Clouds
  • Clear skies
Temperature Dewpoint
10°C / 50°F 1°C / 34°F
Humidity Altimeter Pressure
54% 29.94" Hg 1015.5 hPa